createdAt,value
2018-06-29T00:01:55.614Z,59.20
2018-06-29T00:04:25.178Z,60.40
2018-06-29T00:06:54.837Z,61.30
2018-06-29T00:09:25.038Z,62.40
2018-06-29T00:11:54.419Z,61.50
2018-06-29T00:14:23.981Z,61.60
2018-06-29T00:16:53.917Z,61.90
2018-06-29T00:19:23.560Z,62.30
2018-06-29T00:21:53.144Z,63.40
2018-06-29T00:24:22.541Z,63.10
2018-06-29T00:26:52.273Z,64.00
2018-06-29T00:29:21.941Z,64.50
2018-06-29T00:31:51.673Z,65.00
2018-06-29T00:34:21.029Z,65.80
2018-06-29T00:36:51.528Z,66.90
2018-06-29T00:39:22.088Z,66.30
2018-06-29T00:41:51.945Z,66.30
2018-06-29T00:44:23.419Z,65.40
2018-06-29T00:46:53.587Z,65.90
2018-06-29T00:49:23.100Z,66.50
2018-06-29T00:51:52.729Z,66.60
2018-06-29T00:54:22.251Z,66.80
2018-06-29T00:56:51.419Z,66.30
2018-06-29T00:59:22.088Z,66.30
2018-06-29T01:01:52.098Z,66.30
2018-06-29T01:04:23.370Z,66.30
2018-06-29T01:06:53.625Z,67.50
2018-06-29T01:09:23.365Z,67.40
2018-06-29T01:11:52.876Z,67.90
2018-06-29T01:14:22.578Z,67.70
2018-06-29T01:16:52.049Z,68.10
2018-06-29T01:19:21.486Z,67.60
2018-06-29T01:21:51.111Z,66.80
2018-06-29T01:24:20.759Z,67.60
2018-06-29T01:26:50.316Z,68.00
2018-06-29T01:29:20.675Z,66.50
2018-06-29T01:31:51.172Z,66.80
2018-06-29T01:34:20.709Z,66.80
2018-06-29T01:36:50.246Z,67.30
2018-06-29T01:39:19.855Z,68.00
2018-06-29T01:41:49.319Z,68.30
2018-06-29T01:44:19.690Z,68.40
2018-06-29T01:46:49.646Z,68.40
2018-06-29T01:49:19.387Z,68.10
2018-06-29T01:51:50.251Z,67.20
2018-06-29T01:54:19.743Z,67.20
2018-06-29T01:56:49.296Z,67.50
2018-06-29T01:59:18.892Z,67.60
2018-06-29T02:01:49.372Z,67.20
2018-06-29T02:04:20.880Z,66.90
2018-06-29T02:06:50.650Z,66.90
2018-06-29T02:09:20.183Z,66.90
2018-06-29T02:11:49.713Z,67.60
2018-06-29T02:14:20.580Z,68.10
2018-06-29T02:16:50.045Z,68.40
2018-06-29T02:19:19.585Z,68.40
2018-06-29T02:21:49.841Z,69.00
2018-06-29T02:24:19.348Z,69.00
2018-06-29T02:26:48.889Z,69.60
2018-06-29T02:29:18.973Z,68.30
2018-06-29T02:31:49.129Z,68.80
2018-06-29T02:34:20.199Z,68.50
2018-06-29T02:36:50.645Z,68.30
2018-06-29T02:39:20.864Z,66.70
2018-06-29T02:41:50.220Z,67.40
2018-06-29T02:44:20.126Z,67.70
2018-06-29T02:46:50.788Z,67.40
2018-06-29T02:49:21.259Z,67.40
2018-06-29T02:51:50.701Z,67.30
2018-06-29T02:54:21.460Z,66.90
2018-06-29T02:56:52.189Z,67.00
2018-06-29T02:59:21.956Z,66.90
2018-06-29T03:01:52.288Z,66.70
2018-06-29T03:04:22.071Z,66.10
2018-06-29T03:06:51.513Z,66.20
2018-06-29T03:09:21.212Z,66.40
2018-06-29T03:11:51.307Z,66.60
2018-06-29T03:14:20.876Z,66.80
2018-06-29T03:16:50.478Z,66.60
2018-06-29T03:19:20.521Z,66.60
2018-06-29T03:21:50.450Z,67.00
2018-06-29T03:24:20.850Z,67.40
2018-06-29T03:26:50.559Z,67.50
2018-06-29T03:29:20.800Z,67.80
2018-06-29T03:31:50.309Z,68.20
2018-06-29T03:34:21.541Z,68.00
2018-06-29T03:36:51.188Z,68.00
2018-06-29T03:39:20.694Z,68.00
2018-06-29T03:41:49.907Z,68.00
2018-06-29T03:44:19.682Z,68.10
2018-06-29T03:46:49.199Z,68.60
2018-06-29T03:49:19.147Z,68.70
2018-06-29T03:51:49.041Z,67.90
2018-06-29T03:54:18.666Z,68.50
2018-06-29T03:56:49.247Z,68.80
2018-06-29T03:59:19.306Z,68.80
2018-06-29T04:01:49.972Z,68.90
2018-06-29T04:04:19.891Z,69.00
2018-06-29T04:06:50.427Z,68.90
2018-06-29T04:09:21.340Z,69.40
2018-06-29T04:11:51.120Z,70.00
2018-06-29T04:14:21.384Z,69.80
2018-06-29T04:16:50.999Z,70.50
2018-06-29T04:19:20.702Z,70.00
2018-06-29T04:21:51.762Z,70.70
2018-06-29T04:24:22.280Z,70.90
2018-06-29T04:26:52.375Z,70.80
2018-06-29T04:29:22.259Z,71.20
2018-06-29T04:31:52.391Z,70.30
2018-06-29T04:34:22.982Z,70.50
2018-06-29T04:36:52.411Z,70.10
2018-06-29T04:39:22.027Z,70.50
2018-06-29T04:41:51.654Z,70.40
2018-06-29T04:44:21.283Z,71.00
2018-06-29T04:46:50.697Z,70.80
2018-06-29T04:49:21.195Z,70.80
2018-06-29T04:51:50.865Z,70.70
2018-06-29T04:54:20.360Z,71.00
2018-06-29T04:56:51.069Z,71.30
2018-06-29T04:59:20.864Z,71.00
2018-06-29T05:01:50.662Z,71.00
2018-06-29T05:04:20.797Z,71.00
2018-06-29T05:06:51.206Z,70.90
2018-06-29T05:09:23.829Z,71.40
2018-06-29T05:11:55.082Z,71.40
2018-06-29T05:14:24.881Z,71.60
2018-06-29T05:16:54.370Z,71.70
2018-06-29T05:19:24.175Z,71.40
2018-06-29T05:21:55.020Z,71.00
2018-06-29T05:24:24.693Z,70.90
2018-06-29T05:26:54.494Z,70.90
2018-06-29T05:29:24.027Z,71.10
2018-06-29T05:31:54.731Z,71.00
2018-06-29T05:34:25.057Z,71.30
2018-06-29T05:36:55.752Z,71.10
2018-06-29T05:39:25.222Z,71.30
2018-06-29T05:41:54.810Z,71.30
2018-06-29T05:44:24.267Z,70.90
2018-06-29T05:46:55.152Z,71.10
2018-06-29T05:49:24.763Z,71.20
2018-06-29T05:51:54.237Z,71.20
2018-06-29T05:54:23.914Z,71.10
2018-06-29T05:56:54.324Z,71.20
2018-06-29T05:59:24.122Z,71.20
2018-06-29T06:01:55.568Z,71.40
2018-06-29T06:04:25.829Z,71.50
2018-06-29T06:06:55.612Z,71.00
2018-06-29T06:09:25.495Z,71.60
2018-06-29T06:11:54.980Z,70.80
2018-06-29T06:14:25.834Z,71.40
2018-06-29T06:16:55.426Z,71.30
2018-06-29T06:22:26.607Z,70.80
2018-06-29T06:24:57.349Z,71.40
2018-06-29T06:27:26.680Z,71.70
2018-06-29T06:29:57.139Z,71.70
2018-06-29T06:32:27.238Z,71.70
2018-06-29T06:34:58.586Z,71.60
2018-06-29T06:37:30.216Z,71.30
2018-06-29T06:39:59.514Z,72.00
2018-06-29T06:42:29.183Z,71.20
2018-06-29T06:44:58.578Z,71.30
2018-06-29T06:47:28.265Z,71.00
2018-06-29T06:49:58.999Z,71.40
2018-06-29T06:52:28.795Z,71.60
2018-06-29T06:54:58.543Z,71.60
2018-06-29T06:57:28.695Z,71.70
2018-06-29T06:59:58.281Z,71.30
2018-06-29T07:02:28.948Z,71.70
2018-06-29T07:04:58.633Z,71.70
2018-06-29T07:07:28.090Z,71.60
2018-06-29T07:09:57.569Z,71.20
2018-06-29T07:12:27.089Z,71.80
2018-06-29T07:14:56.841Z,71.70
2018-06-29T07:17:26.420Z,71.40
2018-06-29T07:19:57.722Z,71.50
2018-06-29T07:22:27.285Z,71.40
2018-06-29T07:24:56.948Z,71.70
2018-06-29T07:27:27.055Z,71.50
2018-06-29T07:29:56.731Z,71.60
2018-06-29T07:32:26.248Z,71.60
2018-06-29T07:34:55.871Z,72.00
2018-06-29T07:37:24.624Z,71.90
2018-06-29T07:39:54.507Z,71.70
2018-06-29T07:42:24.748Z,71.90
2018-06-29T07:44:54.940Z,71.90
2018-06-29T07:47:25.006Z,71.80
2018-06-29T07:49:55.443Z,71.70
2018-06-29T07:52:24.898Z,71.80
2018-06-29T07:54:54.182Z,72.00
2018-06-29T07:57:23.603Z,72.40
2018-06-29T07:59:53.531Z,72.80
2018-06-29T08:02:23.250Z,72.30
2018-06-29T08:04:52.788Z,72.50
2018-06-29T08:07:22.548Z,72.60
2018-06-29T08:09:51.669Z,72.90
2018-06-29T08:12:21.311Z,72.40
2018-06-29T08:14:50.728Z,73.00
2018-06-29T08:17:21.311Z,72.70
2018-06-29T08:19:52.043Z,73.10
2018-06-29T08:22:21.603Z,73.00
2018-06-29T08:24:52.891Z,73.20
2018-06-29T08:27:24.254Z,73.90
2018-06-29T08:29:54.422Z,73.90
2018-06-29T08:32:23.923Z,72.90
2018-06-29T08:34:53.531Z,73.80
2018-06-29T08:37:23.080Z,73.00
2018-06-29T08:39:53.344Z,73.20
2018-06-29T08:42:22.781Z,73.20
2018-06-29T08:44:52.475Z,73.50
2018-06-29T08:47:22.661Z,72.90
2018-06-29T08:49:53.065Z,72.70
2018-06-29T08:52:23.373Z,72.60
2018-06-29T08:54:52.961Z,73.00
2018-06-29T08:57:22.561Z,73.50
2018-06-29T08:59:52.254Z,73.60
2018-06-29T09:02:21.719Z,73.30
2018-06-29T09:04:51.646Z,73.50
2018-06-29T09:07:21.078Z,73.60
2018-06-29T09:09:50.591Z,73.50
2018-06-29T09:12:20.032Z,73.20
2018-06-29T09:14:50.380Z,73.30
2018-06-29T09:17:20.203Z,73.20
2018-06-29T09:19:50.676Z,73.40
2018-06-29T09:22:20.137Z,73.30
2018-06-29T09:24:49.420Z,73.60
2018-06-29T09:27:19.050Z,73.70
2018-06-29T09:29:49.426Z,73.70
2018-06-29T09:32:20.076Z,73.10
2018-06-29T09:34:49.557Z,72.90
2018-06-29T09:37:18.970Z,73.70
2018-06-29T09:39:50.513Z,73.50
2018-06-29T09:42:20.810Z,74.00
2018-06-29T09:44:51.561Z,74.00
2018-06-29T09:47:21.763Z,73.60
2018-06-29T09:49:52.410Z,73.80
2018-06-29T09:52:28.329Z,73.80
2018-06-29T09:54:57.941Z,73.70
2018-06-29T09:57:28.166Z,73.70
2018-06-29T09:59:57.635Z,73.70
2018-06-29T10:02:31.690Z,73.60
2018-06-29T10:04:58.690Z,73.50
2018-06-29T10:07:29.114Z,73.40
2018-06-29T10:09:59.340Z,73.40
2018-06-29T10:12:29.078Z,73.50
2018-06-29T10:14:58.633Z,73.50
2018-06-29T10:17:28.077Z,73.60
2018-06-29T10:19:57.709Z,73.40
2018-06-29T10:22:27.568Z,73.60
2018-06-29T10:24:57.164Z,73.80
2018-06-29T10:27:26.427Z,74.00
2018-06-29T10:29:55.823Z,73.60
2018-06-29T10:32:26.082Z,73.80
2018-06-29T10:34:55.356Z,73.70
2018-06-29T10:37:26.003Z,73.70
2018-06-29T10:39:55.524Z,74.20
2018-06-29T10:42:25.078Z,73.90
2018-06-29T10:44:54.922Z,73.90
2018-06-29T10:47:24.600Z,73.50
2018-06-29T10:49:54.354Z,73.30
2018-06-29T10:52:23.818Z,73.60
2018-06-29T10:54:53.126Z,73.90
2018-06-29T10:57:22.744Z,73.80
2018-06-29T10:59:52.331Z,73.60
2018-06-29T11:02:21.999Z,73.50
2018-06-29T11:04:51.432Z,73.80
2018-06-29T11:07:21.698Z,73.70
2018-06-29T11:09:51.117Z,73.70
2018-06-29T11:12:20.569Z,73.80
2018-06-29T11:14:51.160Z,74.00
2018-06-29T11:17:22.090Z,74.00
2018-06-29T11:19:53.535Z,74.50
2018-06-29T11:22:22.940Z,74.70
2018-06-29T11:24:52.195Z,74.40
2018-06-29T11:27:21.703Z,74.70
2018-06-29T11:29:51.189Z,74.30
2018-06-29T11:32:21.707Z,74.70
2018-06-29T11:34:52.825Z,74.70
2018-06-29T11:37:23.233Z,75.00
2018-06-29T11:39:52.915Z,75.20
2018-06-29T11:42:22.752Z,74.40
2018-06-29T11:44:52.397Z,75.30
2018-06-29T11:47:21.825Z,75.60
2018-06-29T11:49:51.973Z,75.60
2018-06-29T11:52:21.504Z,75.60
2018-06-29T11:54:51.286Z,75.70
2018-06-29T11:57:21.301Z,75.70
2018-06-29T11:59:51.123Z,75.80
2018-06-29T12:02:20.920Z,76.40
2018-06-29T12:04:50.551Z,76.60
2018-06-29T12:07:21.411Z,76.80
2018-06-29T12:09:51.054Z,77.00
2018-06-29T12:12:22.493Z,77.30
2018-06-29T12:14:51.770Z,77.30
2018-06-29T12:17:23.748Z,77.60
2018-06-29T12:19:53.341Z,77.50
2018-06-29T12:22:22.937Z,77.60
2018-06-29T12:24:52.237Z,77.70
2018-06-29T12:27:22.583Z,77.80
2018-06-29T12:29:51.840Z,77.90
2018-06-29T12:32:21.037Z,77.60
2018-06-29T12:34:52.461Z,78.20
2018-06-29T12:37:22.242Z,78.60
2018-06-29T12:39:51.601Z,78.60
2018-06-29T12:42:21.289Z,78.40
2018-06-29T12:44:50.699Z,79.30
2018-06-29T12:47:20.096Z,79.00
2018-06-29T12:49:49.293Z,79.60
2018-06-29T12:52:19.117Z,79.70
2018-06-29T12:54:48.721Z,79.40
2018-06-29T12:57:18.335Z,79.20
2018-06-29T12:59:48.427Z,79.40
2018-06-29T13:02:17.734Z,79.50
2018-06-29T13:04:47.318Z,79.40
2018-06-29T13:07:17.076Z,79.30
2018-06-29T13:09:45.943Z,79.20
2018-06-29T13:12:16.117Z,79.50
2018-06-29T13:14:45.587Z,79.50
2018-06-29T13:17:14.942Z,79.50
2018-06-29T13:19:44.527Z,79.40
2018-06-29T13:22:14.039Z,79.20
2018-06-29T13:24:43.528Z,79.40
2018-06-29T13:27:13.162Z,79.50
2018-06-29T13:29:42.453Z,79.50
2018-06-29T13:32:11.766Z,79.30
2018-06-29T13:34:41.360Z,79.50
2018-06-29T13:37:10.756Z,79.50
2018-06-29T13:39:40.304Z,79.30
2018-06-29T13:42:12.865Z,79.30
2018-06-29T13:44:44.535Z,79.30
2018-06-29T13:47:13.863Z,79.20
2018-06-29T13:49:43.047Z,79.20
2018-06-29T13:52:13.821Z,79.30
2018-06-29T13:54:43.521Z,79.70
2018-06-29T13:57:12.811Z,79.40
2018-06-29T13:59:43.045Z,79.20
2018-06-29T14:02:12.758Z,79.00
2018-06-29T14:04:42.841Z,79.10
2018-06-29T14:07:12.379Z,79.10
2018-06-29T14:09:41.964Z,79.10
2018-06-29T14:12:11.563Z,79.50
2018-06-29T14:14:42.382Z,79.40
2018-06-29T14:17:12.105Z,79.70
2018-06-29T14:19:43.431Z,79.90
2018-06-29T14:22:14.584Z,79.90
2018-06-29T14:24:44.908Z,79.60
2018-06-29T14:27:14.476Z,79.70
2018-06-29T14:29:44.373Z,79.70
2018-06-29T14:32:21.289Z,80.60
2018-06-29T14:34:51.818Z,80.30
2018-06-29T14:37:21.341Z,80.30
2018-06-29T14:39:50.850Z,81.10
2018-06-29T14:42:20.946Z,80.60
2018-06-29T14:44:51.189Z,80.60
2018-06-29T14:47:21.072Z,80.70
2018-06-29T14:49:51.924Z,81.20
2018-06-29T14:52:22.259Z,81.50
2018-06-29T14:54:52.769Z,82.50
2018-06-29T14:57:22.450Z,81.70
2018-06-29T14:59:52.455Z,82.50
2018-06-29T15:02:22.638Z,81.90
2018-06-29T15:04:52.055Z,82.60
2018-06-29T15:07:21.739Z,82.90
2018-06-29T15:09:51.332Z,82.80
2018-06-29T15:12:20.894Z,83.00
2018-06-29T15:14:50.368Z,83.30
2018-06-29T15:17:20.923Z,83.90
2018-06-29T15:19:50.249Z,83.90
2018-06-29T15:22:20.747Z,83.40
2018-06-29T15:24:50.585Z,83.40
2018-06-29T15:27:20.876Z,83.20
2018-06-29T15:29:51.407Z,84.00
2018-06-29T15:32:21.712Z,83.80
2018-06-29T15:34:51.700Z,85.00
2018-06-29T15:37:21.346Z,84.70
2018-06-29T15:39:50.728Z,84.50
2018-06-29T15:42:20.310Z,83.90
2018-06-29T15:44:50.861Z,84.00
2018-06-29T15:47:20.168Z,84.70
2018-06-29T15:49:50.731Z,85.30
2018-06-29T15:52:20.469Z,85.30
2018-06-29T15:54:49.747Z,85.10
2018-06-29T15:57:19.160Z,84.50
2018-06-29T15:59:48.641Z,85.50
2018-06-29T16:02:19.030Z,85.10
2018-06-29T16:04:48.229Z,85.40
2018-06-29T16:07:18.448Z,85.00
2018-06-29T16:09:47.746Z,84.90
2018-06-29T16:12:17.325Z,85.10
2018-06-29T16:14:48.590Z,85.40
2018-06-29T16:17:18.594Z,84.70
2018-06-29T16:19:47.837Z,84.90
2018-06-29T16:22:18.375Z,85.00
2018-06-29T16:24:47.958Z,85.10
2018-06-29T16:27:18.186Z,85.00
2018-06-29T16:29:47.557Z,84.50
2018-06-29T16:32:16.903Z,84.10
2018-06-29T16:34:46.623Z,83.80
2018-06-29T16:37:16.624Z,81.60
2018-06-29T16:39:46.884Z,84.20
2018-06-29T16:42:16.302Z,84.20
2018-06-29T16:44:46.034Z,83.70
2018-06-29T16:47:15.759Z,84.20
2018-06-29T16:49:45.237Z,84.40
2018-06-29T16:52:15.067Z,83.90
2018-06-29T16:54:44.633Z,84.60
2018-06-29T16:57:15.983Z,83.50
2018-06-29T16:59:46.026Z,82.30
2018-06-29T17:02:16.076Z,82.30
2018-06-29T17:04:46.072Z,83.10
2018-06-29T17:07:17.346Z,84.00
2018-06-29T17:09:47.903Z,84.50
2018-06-29T17:12:17.450Z,83.60
2018-06-29T17:14:46.767Z,84.00
2018-06-29T17:17:16.213Z,83.00
2018-06-29T17:19:45.879Z,84.30
2018-06-29T17:22:15.533Z,84.10
2018-06-29T17:24:45.010Z,81.40
2018-06-29T17:27:14.456Z,82.10
2018-06-29T17:29:44.912Z,81.50
2018-06-29T17:32:14.451Z,83.20
2018-06-29T17:34:43.986Z,83.60
2018-06-29T17:37:13.383Z,83.70
2018-06-29T17:39:42.847Z,82.10
2018-06-29T17:42:12.367Z,82.90
2018-06-29T17:44:41.987Z,83.80
2018-06-29T17:47:11.522Z,84.50
2018-06-29T17:49:43.175Z,83.60
2018-06-29T17:52:12.767Z,85.60
2018-06-29T17:54:42.106Z,84.60
2018-06-29T17:57:12.371Z,85.80
2018-06-29T17:59:43.708Z,86.30
2018-06-29T18:02:13.212Z,85.40
2018-06-29T18:04:42.964Z,85.90
2018-06-29T18:07:12.680Z,85.20
2018-06-29T18:09:42.362Z,84.40
2018-06-29T18:12:12.875Z,84.60
2018-06-29T18:14:42.546Z,85.00
2018-06-29T18:17:11.972Z,85.30
2018-06-29T18:19:41.159Z,85.40
2018-06-29T18:22:11.056Z,85.80
2018-06-29T18:24:41.064Z,85.70
2018-06-29T18:27:10.394Z,86.30
2018-06-29T18:29:39.870Z,86.10
2018-06-29T18:32:09.326Z,85.50
2018-06-29T18:34:38.934Z,86.00
2018-06-29T18:37:09.254Z,85.70
2018-06-29T18:39:38.922Z,84.70
2018-06-29T18:42:07.824Z,85.40
2018-06-29T18:44:37.396Z,84.70
2018-06-29T18:47:07.089Z,84.00
2018-06-29T18:49:36.797Z,81.90
2018-06-29T18:52:07.208Z,80.90
2018-06-29T18:54:36.967Z,80.90
2018-06-29T18:57:06.660Z,80.90
2018-06-29T18:59:36.347Z,80.00
2018-06-29T19:02:06.044Z,80.30
2018-06-29T19:04:36.134Z,80.80
2018-06-29T19:07:06.645Z,82.10
2018-06-29T19:09:37.347Z,79.70
2018-06-29T19:12:06.643Z,79.90
2018-06-29T19:14:36.835Z,78.40
2018-06-29T19:17:06.212Z,78.40
2018-06-29T19:19:36.308Z,81.80
2018-06-29T19:22:05.800Z,81.80
2018-06-29T19:24:36.705Z,81.80
2018-06-29T19:27:06.464Z,81.10
2018-06-29T19:29:36.121Z,83.50
2018-06-29T19:32:05.754Z,85.40
2018-06-29T19:34:35.512Z,86.30
2018-06-29T19:37:06.007Z,85.60
2018-06-29T19:39:35.552Z,86.10
2018-06-29T19:42:05.622Z,86.10
2018-06-29T19:44:36.469Z,85.60
2018-06-29T19:47:06.898Z,86.10
2018-06-29T19:49:37.733Z,86.30
2018-06-29T19:52:07.304Z,86.30
2018-06-29T19:54:36.819Z,86.50
2018-06-29T19:57:06.715Z,86.30
2018-06-29T19:59:36.234Z,86.40
2018-06-29T20:02:06.172Z,85.80
2018-06-29T20:04:35.952Z,85.30
2018-06-29T20:07:05.655Z,83.40
2018-06-29T20:09:35.427Z,83.70
2018-06-29T20:12:05.080Z,82.60
2018-06-29T20:14:35.551Z,83.00
2018-06-29T20:17:05.115Z,84.00
2018-06-29T20:19:35.641Z,83.10
2018-06-29T20:22:05.094Z,83.00
2018-06-29T20:24:34.839Z,83.30
2018-06-29T20:27:04.907Z,82.70
2018-06-29T20:29:35.391Z,80.90
2018-06-29T20:32:05.491Z,80.80
2018-06-29T20:34:34.959Z,78.80
2018-06-29T20:37:04.505Z,80.90
2018-06-29T20:39:33.939Z,81.10
2018-06-29T20:42:03.534Z,80.20
2018-06-29T20:44:32.920Z,81.60
2018-06-29T20:47:02.265Z,80.10
2018-06-29T20:49:31.904Z,81.50
2018-06-29T20:52:01.451Z,83.70
2018-06-29T20:54:30.948Z,82.90
2018-06-29T20:57:00.270Z,79.40
2018-06-29T20:59:29.764Z,81.30
2018-06-29T21:01:59.704Z,81.20
2018-06-29T21:04:29.587Z,80.90
2018-06-29T21:06:59.516Z,80.80
2018-06-29T21:09:29.297Z,81.40
2018-06-29T21:11:58.726Z,82.50
2018-06-29T21:14:28.405Z,83.30
2018-06-29T21:16:58.214Z,81.60
2018-06-29T21:19:28.244Z,81.20
2018-06-29T21:21:57.614Z,81.30
2018-06-29T21:24:26.945Z,82.10
2018-06-29T21:26:56.249Z,79.90
2018-06-29T21:29:27.027Z,81.30
2018-06-29T21:31:57.779Z,81.30
2018-06-29T21:34:28.126Z,79.50
2018-06-29T21:36:57.524Z,80.60
2018-06-29T21:39:26.905Z,79.40
2018-06-29T21:41:56.452Z,79.20
2018-06-29T21:44:25.874Z,77.50
2018-06-29T21:46:55.316Z,77.70
2018-06-29T21:49:26.191Z,78.00
2018-06-29T21:51:55.923Z,77.30
2018-06-29T21:54:26.168Z,76.20
2018-06-29T21:56:55.725Z,77.70
2018-06-29T21:59:25.284Z,79.10
2018-06-29T22:01:54.818Z,79.10
2018-06-29T22:04:24.438Z,78.30
2018-06-29T22:06:54.308Z,79.00
2018-06-29T22:09:24.809Z,77.70
2018-06-29T22:11:54.380Z,78.70
2018-06-29T22:14:24.267Z,78.10
2018-06-29T22:16:54.625Z,79.20
2018-06-29T22:19:24.320Z,79.10
2018-06-29T22:21:54.078Z,79.10
2018-06-29T22:24:24.430Z,78.30
2018-06-29T22:26:54.800Z,78.70
2018-06-29T22:29:24.360Z,79.50
2018-06-29T22:31:53.381Z,79.90
2018-06-29T22:34:22.860Z,81.40
2018-06-29T22:36:53.316Z,80.90
2018-06-29T22:39:23.734Z,80.30
2018-06-29T22:41:54.572Z,79.30
2018-06-29T22:44:24.071Z,78.30
2018-06-29T22:46:55.112Z,77.00
2018-06-29T22:49:26.319Z,76.90
2018-06-29T22:51:56.022Z,77.90
2018-06-29T22:54:25.694Z,78.30
2018-06-29T22:56:57.168Z,79.70
2018-06-29T22:59:30.094Z,80.00
2018-06-29T23:01:59.476Z,78.90
2018-06-29T23:04:31.599Z,79.90
2018-06-29T23:07:01.193Z,79.40
2018-06-29T23:09:30.370Z,80.20
2018-06-29T23:12:00.710Z,82.30
2018-06-29T23:14:31.230Z,82.30
2018-06-29T23:17:01.129Z,82.80
2018-06-29T23:19:30.861Z,82.60
2018-06-29T23:22:00.180Z,83.20
2018-06-29T23:24:29.451Z,82.00
2018-06-29T23:26:59.055Z,81.60
2018-06-29T23:29:28.710Z,81.20
2018-06-29T23:31:59.029Z,82.10
2018-06-29T23:34:28.558Z,81.40
2018-06-29T23:36:58.645Z,80.80
2018-06-29T23:39:29.284Z,79.10
2018-06-29T23:41:58.769Z,79.00
2018-06-29T23:44:28.582Z,79.40
2018-06-29T23:46:58.104Z,79.50
2018-06-29T23:49:27.703Z,80.00
2018-06-29T23:51:57.446Z,79.00
2018-06-29T23:54:26.935Z,81.50
2018-06-29T23:56:57.734Z,79.70
2018-06-29T23:59:27.264Z,81.80
